Time;durP1;ratioP1;P1;durP2;ratioP2;P2;SDS_P1;SDS_P2;PMS_P1;PMS_P2;Temp;Humidity;BMP_temperature;BMP_pressure;BME280_temperature;BME280_humidity;BME280_pressure;Samples;Min_cycle;Max_cycle;Signal;HPM_P1;HPM_P2
2023/04/27 00:01:50;;;;;;;12.55;5.30;;;3.30;99.90;;;;;;4979609;28;20073;-79
2023/04/27 00:04:15;;;;;;;8.55;4.47;;;3.20;99.90;;;;;;4984417;28;20120;-79
2023/04/27 00:06:42;;;;;;;9.70;4.60;;;3.20;99.90;;;;;;4983396;28;20101;-80
2023/04/27 00:09:07;;;;;;;8.38;4.68;;;3.20;99.90;;;;;;4964204;28;20045;-80
2023/04/27 00:11:33;;;;;;;9.45;4.97;;;3.20;99.90;;;;;;4982826;28;20042;-79
2023/04/27 00:13:59;;;;;;;9.07;4.57;;;3.10;99.90;;;;;;4980107;28;20109;-80
2023/04/27 00:16:25;;;;;;;10.48;4.47;;;3.10;99.90;;;;;;4981638;28;20499;-80
2023/04/27 00:18:51;;;;;;;6.50;3.90;;;3.00;99.90;;;;;;4977797;28;20058;-80
2023/04/27 00:21:17;;;;;;;7.57;4.45;;;3.00;99.90;;;;;;4982365;28;20049;-80
2023/04/27 00:23:42;;;;;;;7.15;4.10;;;3.00;99.90;;;;;;4980229;28;20047;-80
2023/04/27 00:26:08;;;;;;;10.57;3.97;;;2.90;99.90;;;;;;4965976;28;20051;-79
2023/04/27 00:28:34;;;;;;;8.52;4.63;;;2.90;99.90;;;;;;4981103;28;20065;-79
2023/04/27 00:31:02;;;;;;;10.90;5.22;;;2.90;99.90;;;;;;4986079;28;20049;-79
2023/04/27 00:33:28;;;;;;;9.00;5.18;;;2.80;99.90;;;;;;4986748;28;20030;-79
2023/04/27 00:35:53;;;;;;;7.78;4.32;;;2.80;99.90;;;;;;4985150;28;20112;-79
2023/04/27 00:38:19;;;;;;;10.77;5.15;;;2.80;99.90;;;;;;4985953;28;20414;-79
2023/04/27 00:40:45;;;;;;;7.43;4.65;;;2.90;99.90;;;;;;4985140;28;20430;-79
2023/04/27 00:43:11;;;;;;;8.20;4.75;;;2.90;99.90;;;;;;4984186;28;20050;-79
2023/04/27 00:45:44;;;;;;;8.85;5.13;;;3.00;99.90;;;;;;4987521;28;20042;-79
2023/04/27 00:48:11;;;;;;;11.02;5.45;;;3.00;99.90;;;;;;4991801;28;20058;-79
2023/04/27 00:50:37;;;;;;;12.40;5.80;;;3.00;99.90;;;;;;4983752;28;20042;-79
2023/04/27 00:53:05;;;;;;;8.85;4.90;;;3.00;99.90;;;;;;4982883;28;20057;-78
2023/04/27 00:55:30;;;;;;;11.52;5.43;;;3.00;99.90;;;;;;4987471;28;20053;-79
2023/04/27 00:57:56;;;;;;;17.30;6.78;;;3.00;99.90;;;;;;4986556;28;20043;-79
2023/04/27 01:00:22;;;;;;;10.45;4.75;;;3.00;99.90;;;;;;4987640;28;20394;-79
2023/04/27 01:02:48;;;;;;;10.32;4.88;;;3.00;99.90;;;;;;4986276;28;20393;-79
2023/04/27 01:05:13;;;;;;;10.45;5.32;;;3.00;99.90;;;;;;4968702;28;20058;-79
2023/04/27 01:07:39;;;;;;;11.27;5.07;;;3.00;99.90;;;;;;4984463;28;20057;-79
2023/04/27 01:10:06;;;;;;;7.45;4.70;;;3.00;99.90;;;;;;4982454;28;20046;-79
2023/04/27 01:12:32;;;;;;;11.25;4.80;;;2.90;99.90;;;;;;5000670;28;20039;-79
2023/04/27 01:14:58;;;;;;;9.48;6.05;;;2.90;99.90;;;;;;4984059;28;20053;-79
2023/04/27 01:17:25;;;;;;;11.88;5.00;;;2.90;99.90;;;;;;4986946;28;20034;-78
2023/04/27 01:19:54;;;;;;;10.52;4.85;;;2.80;99.90;;;;;;4997638;28;20058;-79
2023/04/27 01:22:22;;;;;;;8.68;4.90;;;2.80;99.90;;;;;;4986035;28;20145;-78
2023/04/27 01:24:48;;;;;;;12.27;6.18;;;2.80;99.90;;;;;;4984042;28;20105;-79
2023/04/27 01:27:13;;;;;;;8.27;4.72;;;2.70;99.90;;;;;;4985738;28;20783;-79
2023/04/27 01:29:39;;;;;;;12.95;5.28;;;2.70;99.90;;;;;;4967953;28;20395;-79
2023/04/27 01:32:05;;;;;;;7.75;4.53;;;2.70;99.90;;;;;;4984386;28;20042;-78
2023/04/27 01:34:31;;;;;;;7.20;4.43;;;2.70;99.90;;;;;;4986989;28;20229;-79
2023/04/27 01:36:57;;;;;;;10.30;5.28;;;2.70;99.90;;;;;;4965980;28;20050;-79
2023/04/27 01:39:22;;;;;;;7.88;4.90;;;2.80;99.90;;;;;;4983622;28;20047;-79
2023/04/27 01:41:48;;;;;;;10.77;5.25;;;2.80;99.90;;;;;;4982200;28;20124;-79
2023/04/27 01:44:14;;;;;;;9.93;5.32;;;2.80;99.90;;;;;;4970396;28;20125;-79
2023/04/27 01:46:39;;;;;;;10.45;5.07;;;2.90;99.90;;;;;;4986488;28;20125;-79
2023/04/27 01:49:05;;;;;;;8.70;4.82;;;3.00;99.90;;;;;;4984860;28;20875;-78
2023/04/27 01:51:31;;;;;;;10.27;5.15;;;3.00;99.90;;;;;;4973513;28;20054;-79
2023/04/27 01:53:57;;;;;;;9.20;5.32;;;3.10;99.90;;;;;;4985831;28;20565;-79
2023/04/27 01:56:23;;;;;;;10.00;5.13;;;3.20;99.90;;;;;;4982154;28;20134;-79
2023/04/27 01:58:49;;;;;;;10.10;5.07;;;3.30;99.90;;;;;;4985959;28;20042;-79
2023/04/27 02:01:14;;;;;;;11.63;5.72;;;3.30;99.90;;;;;;4981898;28;20065;-79
2023/04/27 02:03:40;;;;;;;11.27;5.38;;;3.40;99.90;;;;;;4985236;28;20130;-79
2023/04/27 02:06:06;;;;;;;9.90;5.82;;;3.40;99.90;;;;;;4981040;28;20371;-79
2023/04/27 02:08:33;;;;;;;13.85;5.78;;;3.50;99.90;;;;;;4982891;28;20498;-79
2023/04/27 02:10:59;;;;;;;10.43;5.05;;;3.50;99.90;;;;;;4980835;28;20445;-79
2023/04/27 02:13:24;;;;;;;10.65;5.13;;;3.60;99.90;;;;;;4979781;28;20038;-79
2023/04/27 02:15:50;;;;;;;14.35;5.07;;;3.50;99.90;;;;;;4981771;28;20046;-78
2023/04/27 02:18:17;;;;;;;11.70;5.40;;;3.60;99.90;;;;;;4981717;28;20042;-78
2023/04/27 02:20:43;;;;;;;9.35;6.18;;;3.60;99.90;;;;;;4973132;28;20070;-79
2023/04/27 02:23:08;;;;;;;13.30;5.90;;;3.60;99.90;;;;;;4980618;28;20617;-78
2023/04/27 02:25:37;;;;;;;9.63;5.53;;;3.70;99.90;;;;;;4982320;28;20510;-78
2023/04/27 02:28:03;;;;;;;15.27;6.20;;;3.70;99.90;;;;;;4976746;28;20470;-78
2023/04/27 02:30:29;;;;;;;9.85;5.00;;;3.70;99.90;;;;;;4982917;28;20081;-78
2023/04/27 02:32:58;;;;;;;11.10;5.40;;;3.70;99.90;;;;;;4979561;28;20502;-79
2023/04/27 02:35:23;;;;;;;13.40;5.63;;;3.70;99.90;;;;;;4966695;28;20038;-79
2023/04/27 02:37:49;;;;;;;11.50;5.82;;;3.70;99.90;;;;;;4980124;28;20070;-79
2023/04/27 02:40:15;;;;;;;9.40;5.95;;;3.70;99.90;;;;;;4979399;28;20524;-79
2023/04/27 02:42:40;;;;;;;13.63;5.43;;;3.70;99.90;;;;;;4979896;28;20411;-78
2023/04/27 02:45:07;;;;;;;9.50;5.15;;;3.80;99.90;;;;;;4979854;28;20042;-78
2023/04/27 02:47:33;;;;;;;12.88;6.28;;;3.70;99.90;;;;;;4980055;28;20062;-79
2023/04/27 02:49:59;;;;;;;15.73;6.10;;;3.70;99.90;;;;;;4965628;28;21543;-79
2023/04/27 02:52:25;;;;;;;9.15;5.78;;;3.70;99.90;;;;;;4976752;28;20065;-80
2023/04/27 02:54:50;;;;;;;13.32;6.50;;;3.70;99.90;;;;;;4976051;28;20129;-79
2023/04/27 02:57:16;;;;;;;11.23;6.05;;;3.70;99.90;;;;;;4976193;28;20043;-79
2023/04/27 02:59:42;;;;;;;9.15;6.13;;;3.70;99.90;;;;;;4977571;28;20050;-80
2023/04/27 03:02:08;;;;;;;10.88;5.53;;;3.70;99.90;;;;;;4981296;28;20132;-79
2023/04/27 03:04:35;;;;;;;9.02;6.10;;;3.70;99.90;;;;;;4975657;28;20075;-80
2023/04/27 03:07:04;;;;;;;11.20;5.72;;;3.70;99.90;;;;;;4966418;28;20049;-80
2023/04/27 03:09:29;;;;;;;12.27;5.22;;;3.60;99.90;;;;;;4982924;28;20050;-79
2023/04/27 03:11:55;;;;;;;11.48;5.80;;;3.70;99.90;;;;;;4964457;28;21583;-79
2023/04/27 03:14:22;;;;;;;9.35;5.18;;;3.60;99.90;;;;;;4979404;28;20185;-80
2023/04/27 03:16:47;;;;;;;8.55;5.90;;;3.70;99.90;;;;;;4986952;28;20124;-80
2023/04/27 03:19:13;;;;;;;10.35;5.57;;;3.70;99.90;;;;;;4979455;28;20070;-79
2023/04/27 03:21:39;;;;;;;10.85;5.85;;;3.60;99.90;;;;;;4982285;28;20042;-80
2023/04/27 03:24:05;;;;;;;8.80;5.70;;;3.60;99.90;;;;;;4981620;28;20137;-79
2023/04/27 03:26:30;;;;;;;14.40;6.05;;;3.60;99.90;;;;;;4995499;28;20046;-79
2023/04/27 03:28:56;;;;;;;9.25;5.75;;;3.50;99.90;;;;;;4981344;28;20166;-79
2023/04/27 03:31:22;;;;;;;11.82;6.60;;;3.50;99.90;;;;;;4979662;28;20096;-80
2023/04/27 03:33:47;;;;;;;12.32;6.00;;;3.40;99.90;;;;;;4983393;28;20038;-81
2023/04/27 03:36:13;;;;;;;8.75;5.90;;;3.40;99.90;;;;;;4983026;28;20101;-79
2023/04/27 03:38:38;;;;;;;10.45;6.05;;;3.30;99.90;;;;;;4983699;28;20410;-79
2023/04/27 03:41:04;;;;;;;12.90;6.93;;;3.30;99.90;;;;;;4978662;28;20038;-79
2023/04/27 03:43:30;;;;;;;12.90;6.53;;;3.30;99.90;;;;;;4980386;28;20046;-80
2023/04/27 03:45:56;;;;;;;11.18;6.75;;;3.30;99.90;;;;;;4981340;28;20125;-80
2023/04/27 03:48:22;;;;;;;10.35;6.22;;;3.30;99.90;;;;;;4979559;28;20046;-80
2023/04/27 03:50:47;;;;;;;10.60;6.53;;;3.30;99.90;;;;;;4984556;28;20052;-81
2023/04/27 03:53:13;;;;;;;10.40;6.07;;;3.20;99.90;;;;;;4995134;28;20038;-80
2023/04/27 03:55:41;;;;;;;10.57;6.72;;;3.20;99.90;;;;;;4979781;28;20165;-80
2023/04/27 03:58:07;;;;;;;11.10;6.50;;;3.20;99.90;;;;;;4967815;28;20096;-80
2023/04/27 04:00:33;;;;;;;11.85;6.15;;;3.20;99.90;;;;;;4982961;28;20123;-80
2023/04/27 04:02:59;;;;;;;12.55;6.68;;;3.10;99.90;;;;;;4980693;28;20414;-80
2023/04/27 04:05:24;;;;;;;11.80;6.90;;;3.10;99.90;;;;;;4984450;28;20042;-80
2023/04/27 04:07:50;;;;;;;10.77;7.03;;;3.10;99.90;;;;;;4983997;28;20049;-81
2023/04/27 04:10:16;;;;;;;11.73;6.68;;;3.00;99.90;;;;;;4980195;28;20074;-80
2023/04/27 04:12:41;;;;;;;12.85;7.72;;;3.00;99.90;;;;;;4964965;28;21697;-80
2023/04/27 04:15:08;;;;;;;14.98;7.38;;;3.00;99.90;;;;;;4981359;28;20038;-80
2023/04/27 04:17:33;;;;;;;13.60;6.88;;;2.90;99.90;;;;;;4981624;28;20054;-80
2023/04/27 04:20:00;;;;;;;13.70;7.38;;;2.90;99.90;;;;;;4982108;28;20050;-80
2023/04/27 04:22:26;;;;;;;14.63;7.60;;;2.90;99.90;;;;;;4981035;28;20559;-80
2023/04/27 04:24:52;;;;;;;14.82;7.32;;;2.90;99.90;;;;;;4981741;28;20046;-80
2023/04/27 04:27:18;;;;;;;11.95;7.53;;;2.90;99.90;;;;;;4982116;28;20152;-81
2023/04/27 04:29:44;;;;;;;13.90;7.57;;;2.90;99.90;;;;;;4981216;28;20034;-80
2023/04/27 04:32:11;;;;;;;15.10;7.38;;;2.90;99.90;;;;;;4980200;28;20045;-80
2023/04/27 04:34:36;;;;;;;8.93;5.97;;;2.80;99.90;;;;;;4980757;28;20043;-80
2023/04/27 04:37:03;;;;;;;10.75;6.40;;;2.80;99.90;;;;;;4984630;28;20065;-80
2023/04/27 04:39:32;;;;;;;12.18;6.55;;;2.80;99.90;;;;;;4975547;28;20042;-80
2023/04/27 04:41:57;;;;;;;9.13;5.90;;;2.80;99.90;;;;;;4968055;28;20414;-80
2023/04/27 04:44:23;;;;;;;14.57;7.32;;;2.70;99.90;;;;;;4974911;28;20050;-80
2023/04/27 04:46:50;;;;;;;12.20;6.88;;;2.70;99.90;;;;;;4972786;28;20074;-81
2023/04/27 04:49:15;;;;;;;12.65;6.80;;;2.70;99.90;;;;;;4972812;28;20406;-81
2023/04/27 04:51:42;;;;;;;10.90;7.30;;;2.80;99.90;;;;;;4977987;28;20038;-80
2023/04/27 04:54:08;;;;;;;14.18;7.43;;;2.90;99.90;;;;;;4964870;28;20712;-81
2023/04/27 04:56:34;;;;;;;11.60;6.35;;;2.90;99.90;;;;;;4973367;28;20046;-80
2023/04/27 04:59:00;;;;;;;14.43;6.43;;;2.90;99.90;;;;;;4972202;28;20054;-81
2023/04/27 05:01:26;;;;;;;14.05;6.10;;;3.00;99.90;;;;;;4978427;28;20418;-80
2023/04/27 05:03:52;;;;;;;11.20;6.63;;;3.10;99.90;;;;;;4977063;28;20081;-81
2023/04/27 05:06:17;;;;;;;11.27;7.70;;;3.20;99.90;;;;;;4974049;28;20046;-80
2023/04/27 05:08:43;;;;;;;10.93;6.65;;;3.20;99.90;;;;;;4975126;28;20038;-80
2023/04/27 05:11:09;;;;;;;9.27;6.20;;;3.30;99.90;;;;;;4974917;28;20561;-79
2023/04/27 05:13:35;;;;;;;14.43;6.80;;;3.40;99.90;;;;;;4980624;28;20414;-80
2023/04/27 05:16:07;;;;;;;10.95;6.57;;;3.40;99.90;;;;;;4979224;28;20107;-80
2023/04/27 05:18:35;;;;;;;9.63;6.75;;;3.60;99.90;;;;;;4984886;28;20043;-80
2023/04/27 05:21:01;;;;;;;9.43;6.00;;;3.70;99.90;;;;;;4987842;28;20035;-79
2023/04/27 05:23:27;;;;;;;11.40;6.35;;;3.80;99.90;;;;;;4986978;28;20125;-81
2023/04/27 05:25:52;;;;;;;10.95;6.00;;;4.00;99.90;;;;;;4965316;28;20050;-74
2023/04/27 05:28:18;;;;;;;12.98;7.05;;;4.10;99.90;;;;;;4965198;28;20082;-79
2023/04/27 05:30:44;;;;;;;9.70;5.75;;;4.10;99.90;;;;;;4982855;28;20090;-80
2023/04/27 05:33:10;;;;;;;12.63;5.82;;;4.20;99.90;;;;;;4984096;28;20042;-79
2023/04/27 05:35:35;;;;;;;13.95;7.53;;;4.30;99.90;;;;;;4987429;28;20242;-79
2023/04/27 05:38:02;;;;;;;11.13;6.10;;;4.30;99.90;;;;;;4988510;28;20050;-77
2023/04/27 05:40:28;;;;;;;11.57;6.65;;;4.40;99.90;;;;;;4969295;28;20413;-79
2023/04/27 05:42:53;;;;;;;15.15;7.32;;;4.40;99.90;;;;;;4962882;28;20042;-80
2023/04/27 05:45:19;;;;;;;14.88;7.25;;;4.60;99.90;;;;;;4987384;28;20054;-80
2023/04/27 05:47:45;;;;;;;13.65;6.70;;;4.70;99.90;;;;;;4989115;28;20050;-79
2023/04/27 05:50:11;;;;;;;10.38;6.97;;;4.80;99.90;;;;;;4984034;28;20056;-79
2023/04/27 05:52:37;;;;;;;11.93;6.40;;;5.00;99.90;;;;;;5000634;28;20552;-79
2023/04/27 05:55:04;;;;;;;14.07;6.55;;;5.20;99.90;;;;;;4987424;28;20053;-79
2023/04/27 05:57:30;;;;;;;10.88;6.38;;;5.30;99.90;;;;;;4985680;28;20556;-80
2023/04/27 05:59:55;;;;;;;9.52;5.55;;;5.50;99.90;;;;;;4986377;28;20077;-79
2023/04/27 06:02:21;;;;;;;8.57;5.05;;;5.60;99.90;;;;;;4984134;28;20052;-79
2023/04/27 06:04:47;;;;;;;10.15;5.35;;;5.70;99.90;;;;;;4985335;28;20054;-78
2023/04/27 06:07:14;;;;;;;8.90;5.80;;;5.80;99.90;;;;;;4966420;28;20042;-79
2023/04/27 06:09:40;;;;;;;9.65;5.53;;;6.00;99.90;;;;;;4969824;28;20337;-78
2023/04/27 06:12:07;;;;;;;10.90;5.78;;;6.10;99.90;;;;;;4984521;28;20137;-78
2023/04/27 06:14:35;;;;;;;11.15;5.20;;;6.30;99.90;;;;;;4986546;28;20047;-79
2023/04/27 06:17:01;;;;;;;12.13;4.80;;;6.40;99.90;;;;;;4984453;28;20567;-79
2023/04/27 06:19:27;;;;;;;8.93;5.03;;;6.50;99.90;;;;;;4984579;28;20073;-79
2023/04/27 06:21:54;;;;;;;8.93;5.03;;;6.60;99.90;;;;;;4988879;28;20478;-78
2023/04/27 06:24:21;;;;;;;9.40;5.00;;;6.70;99.90;;;;;;4984264;28;20129;-79
2023/04/27 06:26:47;;;;;;;9.15;4.88;;;6.80;99.90;;;;;;4987004;28;20070;-80
2023/04/27 06:29:13;;;;;;;9.50;5.15;;;6.90;99.90;;;;;;4986320;28;20136;-80
2023/04/27 06:31:39;;;;;;;11.82;4.90;;;7.00;99.90;;;;;;4981942;28;20450;-80
2023/04/27 06:34:05;;;;;;;11.35;5.15;;;7.20;99.90;;;;;;4983783;28;20058;-79
2023/04/27 06:36:31;;;;;;;9.02;4.82;;;7.30;99.90;;;;;;4981401;28;20093;-79
2023/04/27 06:38:57;;;;;;;18.60;6.72;;;7.50;99.90;;;;;;4987690;28;20038;-79
2023/04/27 06:41:24;;;;;;;7.82;4.50;;;7.60;99.90;;;;;;4988010;28;20092;-78
2023/04/27 06:43:50;;;;;;;12.63;5.07;;;7.70;99.90;;;;;;4984794;28;20279;-80
2023/04/27 06:46:17;;;;;;;9.02;5.10;;;7.80;99.90;;;;;;4967224;28;20042;-73
2023/04/27 06:48:42;;;;;;;7.35;4.10;;;8.00;99.90;;;;;;4984056;28;20282;-83
2023/04/27 06:51:08;;;;;;;11.48;4.88;;;8.10;99.90;;;;;;4980728;28;20117;-83
2023/04/27 06:53:34;;;;;;;6.80;4.40;;;8.30;99.90;;;;;;4966474;28;20441;-83
2023/04/27 06:55:59;;;;;;;9.15;4.32;;;8.40;99.90;;;;;;4984392;28;20572;-83
2023/04/27 06:58:26;;;;;;;10.93;4.65;;;8.50;99.90;;;;;;4986103;28;20038;-81
2023/04/27 07:00:52;;;;;;;6.88;3.58;;;8.60;99.90;;;;;;4982635;28;20516;-81
2023/04/27 07:03:17;;;;;;;10.65;4.20;;;8.70;99.90;;;;;;4985630;28;20046;-81
2023/04/27 07:05:43;;;;;;;7.68;3.53;;;8.80;99.90;;;;;;4985248;28;20046;-81
2023/04/27 07:08:09;;;;;;;6.93;4.07;;;8.80;99.90;;;;;;4970538;28;20050;-82
2023/04/27 07:10:35;;;;;;;9.65;3.88;;;8.90;99.90;;;;;;4987807;28;20954;-82
2023/04/27 07:13:00;;;;;;;8.80;4.20;;;9.00;99.90;;;;;;4988738;28;20939;-81
2023/04/27 07:15:26;;;;;;;9.13;4.47;;;9.20;99.90;;;;;;4985041;28;20046;-81
2023/04/27 07:17:55;;;;;;;9.65;4.47;;;9.40;99.90;;;;;;4988617;28;20061;-79
2023/04/27 07:20:20;;;;;;;10.32;5.38;;;9.40;99.90;;;;;;4985772;28;20077;-79
2023/04/27 07:22:46;;;;;;;6.38;4.50;;;9.50;99.90;;;;;;4984338;28;20507;-81
2023/04/27 07:25:12;;;;;;;9.40;4.07;;;9.60;99.90;;;;;;4986084;28;20781;-80
2023/04/27 07:27:38;;;;;;;6.57;3.78;;;9.70;99.90;;;;;;4980568;28;20046;-80
2023/04/27 07:30:08;;;;;;;6.05;3.88;;;9.90;99.90;;;;;;4969926;28;20072;-81
2023/04/27 07:32:34;;;;;;;9.40;4.03;;;10.00;99.90;;;;;;4985597;28;20062;-80
2023/04/27 07:34:59;;;;;;;6.68;3.72;;;10.00;99.90;;;;;;4984118;28;20050;-81
2023/04/27 07:37:25;;;;;;;5.55;3.90;;;10.10;99.90;;;;;;4984135;28;20089;-81
2023/04/27 07:39:51;;;;;;;5.75;3.58;;;10.20;99.90;;;;;;4978913;28;20053;-80
2023/04/27 07:42:18;;;;;;;6.05;3.33;;;10.20;99.90;;;;;;4980918;28;20052;-80
2023/04/27 07:44:44;;;;;;;6.80;3.35;;;10.30;99.90;;;;;;4989675;28;20112;-83
2023/04/27 07:47:09;;;;;;;6.60;2.70;;;10.50;99.90;;;;;;4988977;28;20058;-88
2023/04/27 07:49:36;;;;;;;6.55;3.35;;;10.60;99.90;;;;;;4982262;28;20048;-75
2023/04/27 07:52:03;;;;;;;5.68;3.35;;;10.70;99.90;;;;;;4984182;28;20133;-74
2023/04/27 07:54:29;;;;;;;8.02;2.60;;;10.80;99.90;;;;;;4982481;28;20088;-75
2023/04/27 07:56:54;;;;;;;6.28;2.90;;;10.80;99.90;;;;;;4981057;28;20051;-75
2023/04/27 07:59:20;;;;;;;4.40;2.13;;;10.90;99.90;;;;;;4983053;28;20046;-75
2023/04/27 08:01:46;;;;;;;6.20;2.35;;;10.80;99.90;;;;;;4981960;28;20509;-75
2023/04/27 08:04:12;;;;;;;5.88;2.00;;;10.90;99.90;;;;;;4982233;28;20137;-75
2023/04/27 08:06:38;;;;;;;7.80;2.38;;;10.90;99.90;;;;;;4968016;28;20117;-75
2023/04/27 08:09:04;;;;;;;5.20;2.78;;;11.00;99.90;;;;;;4980666;28;20418;-75
2023/04/27 08:11:30;;;;;;;7.15;2.38;;;11.10;99.90;;;;;;4979451;28;20046;-75
2023/04/27 08:13:56;;;;;;;6.30;2.55;;;11.10;99.90;;;;;;4975955;28;20114;-76
2023/04/27 08:16:22;;;;;;;6.45;2.55;;;11.10;99.90;;;;;;4978581;28;20045;-72
2023/04/27 08:18:48;;;;;;;5.75;2.47;;;11.10;99.90;;;;;;4985973;28;20490;-73
2023/04/27 08:21:14;;;;;;;10.40;2.90;;;11.10;99.90;;;;;;4967674;28;20062;-73
2023/04/27 08:23:41;;;;;;;6.10;2.78;;;11.20;99.90;;;;;;4987349;28;20104;-73
2023/04/27 08:26:06;;;;;;;4.97;2.72;;;11.20;99.90;;;;;;4968621;28;20121;-73
2023/04/27 08:28:32;;;;;;;5.72;2.50;;;11.20;99.90;;;;;;4977432;28;20129;-74
2023/04/27 08:30:58;;;;;;;4.82;2.55;;;11.10;99.90;;;;;;4982150;28;20066;-74
2023/04/27 08:33:24;;;;;;;4.97;2.08;;;11.30;99.90;;;;;;4983404;28;20047;-73
2023/04/27 08:35:52;;;;;;;6.38;2.47;;;11.40;99.90;;;;;;4981986;28;20050;-73
2023/04/27 08:38:18;;;;;;;3.70;2.45;;;11.60;99.90;;;;;;4981578;28;20045;-73
2023/04/27 08:40:44;;;;;;;6.20;2.38;;;11.70;99.90;;;;;;4979787;28;20053;-73
2023/04/27 08:43:10;;;;;;;6.47;2.25;;;11.80;99.90;;;;;;4968975;28;20069;-73
2023/04/27 08:45:36;;;;;;;6.63;2.92;;;11.90;99.90;;;;;;4976806;28;20144;-73
2023/04/27 08:48:02;;;;;;;6.65;2.38;;;12.00;99.90;;;;;;4978495;28;20520;-73
2023/04/27 08:50:28;;;;;;;5.57;2.10;;;11.90;99.90;;;;;;4986958;28;20070;-73
2023/04/27 08:52:54;;;;;;;8.63;2.55;;;12.00;99.90;;;;;;4986204;28;20096;-73
2023/04/27 08:55:20;;;;;;;10.93;2.67;;;12.00;99.90;;;;;;4991655;28;21273;-70
2023/04/27 08:57:56;;;;;;;4.63;2.30;;;12.10;99.90;;;;;;4986434;28;20061;-70
2023/04/27 09:00:23;;;;;;;5.00;2.47;;;12.20;99.90;;;;;;4985675;28;20196;-71
2023/04/27 09:02:49;;;;;;;4.18;1.90;;;12.30;99.90;;;;;;4983883;28;20053;-71
2023/04/27 09:05:22;;;;;;;4.70;2.13;;;12.30;99.90;;;;;;4987596;28;20046;-72
2023/04/27 09:08:06;;;;;;;6.45;2.40;;;12.40;99.90;;;;;;4985970;28;20158;-71
2023/04/27 09:10:46;;;;;;;10.15;3.05;;;12.60;99.90;;;;;;4985605;28;20042;-71
2023/04/27 09:13:12;;;;;;;5.55;2.13;;;12.70;99.90;;;;;;4983839;28;20042;-71
2023/04/27 09:15:48;;;;;;;10.60;3.03;;;12.70;99.90;;;;;;4986055;28;20055;-72
2023/04/27 09:18:20;;;;;;;6.63;2.60;;;12.80;99.90;;;;;;4968135;28;20046;-74
2023/04/27 09:20:47;;;;;;;5.88;2.17;;;12.80;99.90;;;;;;4983905;28;20046;-69
2023/04/27 09:23:35;;;;;;;5.88;2.50;;;12.80;99.90;;;;;;4978013;28;20446;-68
2023/04/27 09:26:06;;;;;;;7.43;2.40;;;12.90;99.90;;;;;;4998807;28;20038;-72
2023/04/27 09:28:33;;;;;;;6.75;2.22;;;12.90;99.90;;;;;;4990010;28;20145;-72
2023/04/27 09:31:02;;;;;;;6.25;2.00;;;12.90;99.90;;;;;;4987752;28;20043;-72
2023/04/27 09:33:29;;;;;;;4.85;2.20;;;12.90;99.90;;;;;;4988603;28;20050;-72
2023/04/27 09:35:57;;;;;;;5.72;2.40;;;12.70;99.90;;;;;;4989534;28;20607;-72
2023/04/27 09:38:23;;;;;;;4.53;2.20;;;12.70;99.90;;;;;;4989517;28;20128;-74
2023/04/27 09:40:50;;;;;;;4.85;1.90;;;12.80;99.90;;;;;;4978350;28;20505;-74
2023/04/27 09:43:16;;;;;;;4.68;2.22;;;12.90;99.90;;;;;;4987446;28;20051;-74
2023/04/27 09:45:42;;;;;;;4.80;2.40;;;13.00;99.90;;;;;;4986437;28;20520;-74
2023/04/27 09:48:09;;;;;;;5.57;2.40;;;13.00;99.90;;;;;;4987553;28;20066;-74
2023/04/27 09:50:40;;;;;;;5.93;2.30;;;13.10;99.90;;;;;;4989735;28;20494;-74
2023/04/27 09:53:09;;;;;;;7.75;3.13;;;13.30;99.90;;;;;;4987301;28;20061;-74
2023/04/27 09:55:49;;;;;;;3.60;2.20;;;13.30;99.90;;;;;;4986855;28;20125;-74
2023/04/27 09:58:25;;;;;;;6.60;2.75;;;13.20;99.90;;;;;;4989667;28;20053;-74
2023/04/27 10:01:20;;;;;;;6.68;3.17;;;13.30;99.90;;;;;;4989827;28;20058;-78
2023/04/27 10:04:07;;;;;;;6.32;2.70;;;13.20;99.90;;;;;;4987983;28;20042;-74
2023/04/27 10:06:33;;;;;;;7.78;2.38;;;13.10;99.90;;;;;;4986516;28;20442;-75
2023/04/27 10:09:04;;;;;;;5.38;2.35;;;13.00;99.90;;;;;;4984966;28;20046;-75
2023/04/27 10:11:39;;;;;;;6.47;2.35;;;13.00;99.90;;;;;;4971843;28;20104;-75
2023/04/27 10:14:09;;;;;;;3.78;2.28;;;13.10;99.90;;;;;;4987299;28;20034;-74
2023/04/27 10:16:52;;;;;;;6.50;2.60;;;13.30;99.90;;;;;;4988325;28;20414;-74
2023/04/27 10:19:22;;;;;;;6.25;2.13;;;13.60;99.90;;;;;;4985017;28;20050;-74
2023/04/27 10:22:06;;;;;;;5.78;3.00;;;13.60;99.90;;;;;;4990477;28;20801;-75
2023/04/27 10:24:40;;;;;;;4.75;2.33;;;13.70;99.90;;;;;;4986342;28;20205;-74
2023/04/27 10:27:08;;;;;;;5.32;2.30;;;13.60;99.90;;;;;;4987831;28;20045;-74
2023/04/27 10:29:41;;;;;;;5.25;2.33;;;13.60;99.90;;;;;;4987933;28;20069;-74
2023/04/27 10:32:13;;;;;;;4.15;2.50;;;13.60;99.90;;;;;;4985267;28;20034;-74
2023/04/27 10:34:39;;;;;;;5.95;2.85;;;13.80;99.90;;;;;;4988342;28;20054;-73
2023/04/27 10:37:08;;;;;;;4.25;2.33;;;13.80;99.90;;;;;;4982550;28;20117;-75
2023/04/27 10:39:37;;;;;;;6.32;2.33;;;13.90;99.90;;;;;;4986120;28;20572;-74
2023/04/27 10:42:03;;;;;;;5.38;2.40;;;13.90;99.90;;;;;;4984184;28;20045;-74
2023/04/27 10:44:30;;;;;;;4.68;2.35;;;13.90;99.90;;;;;;4988222;28;20587;-74
2023/04/27 10:47:01;;;;;;;9.80;2.80;;;13.70;99.90;;;;;;4985257;28;20486;-74
2023/04/27 10:49:30;;;;;;;6.65;2.58;;;13.90;99.90;;;;;;4985862;28;20038;-74
2023/04/27 10:52:03;;;;;;;8.32;2.80;;;13.90;99.90;;;;;;4986806;28;20038;-74
2023/04/27 10:54:30;;;;;;;5.63;2.42;;;14.10;99.90;;;;;;4986612;28;20413;-74
2023/04/27 10:57:09;;;;;;;4.80;2.55;;;14.10;99.90;;;;;;4984411;28;20047;-74
2023/04/27 10:59:50;;;;;;;7.50;2.72;;;13.80;99.90;;;;;;4987586;28;20555;-74
2023/04/27 11:02:16;;;;;;;11.20;3.25;;;13.70;99.90;;;;;;4983671;28;20497;-81
2023/04/27 11:04:42;;;;;;;6.15;2.88;;;13.70;99.90;;;;;;4987532;28;20465;-77
2023/04/27 11:07:09;;;;;;;7.20;2.50;;;13.80;99.90;;;;;;4979705;28;20118;-77
2023/04/27 11:09:38;;;;;;;6.68;2.45;;;13.90;99.90;;;;;;4991941;28;20046;-79
2023/04/27 11:12:11;;;;;;;5.95;2.60;;;13.90;99.90;;;;;;4989519;28;20065;-78
2023/04/27 11:14:37;;;;;;;6.68;2.88;;;13.70;99.90;;;;;;4971580;28;20081;-78
2023/04/27 11:17:05;;;;;;;5.28;2.53;;;13.60;99.90;;;;;;4983053;28;20489;-76
2023/04/27 11:19:31;;;;;;;5.88;2.75;;;13.60;99.90;;;;;;4982524;28;20046;-81
2023/04/27 11:22:05;;;;;;;5.75;3.15;;;13.50;99.90;;;;;;4977417;28;20061;-82
2023/04/27 11:24:31;;;;;;;5.78;2.67;;;13.60;99.90;;;;;;4982650;28;20046;-82
2023/04/27 11:26:57;;;;;;;7.85;3.78;;;13.80;99.90;;;;;;4982080;28;20096;-83
2023/04/27 11:29:23;;;;;;;12.77;3.90;;;14.00;99.90;;;;;;4982555;28;20042;-82
2023/04/27 11:31:50;;;;;;;7.30;3.25;;;14.10;99.90;;;;;;4983420;28;20178;-83
2023/04/27 11:34:18;;;;;;;8.27;3.97;;;14.10;99.90;;;;;;4976697;28;20065;-84
2023/04/27 11:36:55;;;;;;;8.13;3.55;;;14.10;99.90;;;;;;4988022;28;20112;-83
2023/04/27 11:39:21;;;;;;;5.70;3.33;;;14.00;99.90;;;;;;4998065;28;20133;-83
2023/04/27 11:41:47;;;;;;;6.10;3.38;;;14.00;99.90;;;;;;4978335;28;20526;-83
2023/04/27 11:44:12;;;;;;;6.80;3.50;;;14.00;99.90;;;;;;4968508;28;20046;-83
2023/04/27 11:46:42;;;;;;;8.25;3.67;;;13.90;99.90;;;;;;4968901;28;20088;-82
2023/04/27 11:49:08;;;;;;;6.22;3.38;;;13.90;99.90;;;;;;4958955;28;20049;-82
2023/04/27 11:51:35;;;;;;;7.32;3.28;;;13.80;99.90;;;;;;4967679;28;20042;-83
2023/04/27 11:54:05;;;;;;;5.75;3.38;;;13.70;99.90;;;;;;4968622;28;20592;-82
2023/04/27 11:56:39;;;;;;;7.75;3.05;;;13.70;99.90;;;;;;4981861;28;20514;-82
2023/04/27 11:59:05;;;;;;;6.45;3.22;;;13.70;99.90;;;;;;4968210;28;20133;-82
2023/04/27 12:01:34;;;;;;;6.70;3.28;;;13.70;99.90;;;;;;4965386;28;20042;-84
2023/04/27 12:04:01;;;;;;;7.25;3.33;;;13.70;99.90;;;;;;4969492;28;20532;-84
2023/04/27 12:06:27;;;;;;;11.52;4.55;;;13.70;99.90;;;;;;4968468;28;20101;-79
2023/04/27 12:08:56;;;;;;;7.15;3.58;;;13.80;99.90;;;;;;4964343;28;20137;-80
2023/04/27 12:11:25;;;;;;;12.02;3.33;;;13.90;99.90;;;;;;4967644;28;20501;-79
2023/04/27 12:13:51;;;;;;;5.15;3.30;;;13.90;99.90;;;;;;4975062;28;20129;-79
2023/04/27 12:16:17;;;;;;;8.15;3.28;;;13.90;99.90;;;;;;4970610;28;20124;-79
2023/04/27 12:18:42;;;;;;;7.97;3.20;;;13.90;99.90;;;;;;4970323;28;20181;-80
2023/04/27 12:21:09;;;;;;;9.95;3.58;;;13.80;99.90;;;;;;4969675;28;20051;-79
2023/04/27 12:23:35;;;;;;;9.95;3.70;;;13.80;99.90;;;;;;4968644;28;20038;-79
2023/04/27 12:26:00;;;;;;;7.97;3.17;;;13.80;99.90;;;;;;4974275;28;20043;-76
2023/04/27 12:28:26;;;;;;;8.57;3.13;;;13.70;99.90;;;;;;4969379;28;20085;-78
2023/04/27 12:30:52;;;;;;;9.68;3.47;;;13.70;99.90;;;;;;4986052;28;20053;-72
2023/04/27 12:33:17;;;;;;;7.30;3.33;;;13.60;99.90;;;;;;4989184;28;20046;-76
2023/04/27 12:35:43;;;;;;;6.15;3.25;;;13.60;99.90;;;;;;4989792;28;20513;-72
2023/04/27 12:38:09;;;;;;;6.78;2.97;;;13.50;99.90;;;;;;4987780;28;20046;-72
2023/04/27 12:40:34;;;;;;;5.93;3.15;;;13.40;99.90;;;;;;4976022;28;20054;-72
2023/04/27 12:43:00;;;;;;;6.97;3.55;;;13.50;99.90;;;;;;4989691;28;20081;-72
2023/04/27 12:45:26;;;;;;;6.72;3.20;;;13.50;99.90;;;;;;4987552;28;20496;-72
2023/04/27 12:47:53;;;;;;;7.18;3.38;;;13.60;99.90;;;;;;4992708;28;20057;-72